Huvudsida
METAR-TAF:

METAR-TAF

Flygplatser :

Haugesunds flygplats. Karmøy

Haugesunds, Norge

latitud: 59-21N, longitud: 005-13E, höjd: 2 m

Aktuellt väderrapport

Denna rapport gjordes för 14 minuter sedan, klockan 09:50 UTC
Vind 11 kt från väst/sydväst
Temperatur 8°C
Fuktighet 81%
Tryck 1022 hPa
Sikt 10 km eller mer
Inga moln under 1 500 m eller inga cumulonimbus

METAR: ENHD 200950Z 24011KT CAVOK 08/05 Q1022

Tid: 11:04 (10:04 UTC)

Väderprognos

Denna rapport gjordes för 2 timmar och 4 minuter sedan, klockan 08:00 UTC
Prognos gäller från 20 kl. 09 UTC till 20 kl. 18 UTC
Vind 12 kt från väst
Sikt 10 km eller mer
Få moln på en höjd av 3000 ft
Blir
från 20 kl. 15 UTC till 20 kl. 18 UTC
Vind 6 kt varierande vindriktning

TAF: ENHD 200800Z 2009/2018 27012KT 9999 FEW030 BECMG 2015/2018 VRB06KT

Aktuella väderrapporter och prognoser från 4000 flygplatser (METAR- och TAF-rapporter).

De tillgängliga stationerna syns som gula och röda prickar på kartan.

För musen över prickarna för att se namnen på stationerna.

Klicka sedan för att få väderrapporter och prognoser.

För att ändra kartan: Klicka på de gröna knapparna med ett svart kors på för att zooma in; den gröna knappen med ett streck på för att zooma ut; eller på de gröna pilarna för angränsande kartor.


METAR-TAF: